Time;durP1;ratioP1;P1;durP2;ratioP2;P2;SDS_P1;SDS_P2;PMS_P1;PMS_P2;Temp;Humidity;BMP_temperature;BMP_pressure;BME280_temperature;BME280_humidity;BME280_pressure;Samples;Min_cycle;Max_cycle;Signal;HPM_P1;HPM_P2
2022/01/23 00:02:03;;;;;;;44.15;23.33;;;1.70;99.90;;;;;;5029920;28;20392;-69
2022/01/23 00:05:08;;;;;;;49.65;26.30;;;1.70;99.90;;;;;;5030131;28;20048;-68
2022/01/23 00:08:15;;;;;;;58.78;30.55;;;1.70;99.90;;;;;;5029788;28;20052;-68
2022/01/23 00:11:25;;;;;;;43.22;20.80;;;1.70;99.90;;;;;;5030308;28;20056;-68
2022/01/23 00:17:52;;;;;;;34.22;19.63;;;1.70;99.90;;;;;;5030177;28;20052;-68
2022/01/23 00:20:56;;;;;;;33.65;17.38;;;1.70;99.90;;;;;;5029929;28;20047;-68
2022/01/23 00:33:32;;;;;;;31.00;15.80;;;1.60;99.90;;;;;;5029626;28;19916;-68
2022/01/23 00:36:37;;;;;;;32.40;15.93;;;1.60;99.90;;;;;;5029410;28;20417;-68
2022/01/23 00:39:41;;;;;;;30.58;16.63;;;1.50;99.90;;;;;;5028454;28;20064;-68
2022/01/23 00:42:45;;;;;;;44.22;19.80;;;1.50;99.90;;;;;;5029666;28;20041;-68
2022/01/23 00:45:54;;;;;;;38.30;18.70;;;1.50;99.90;;;;;;5028585;28;20048;-68
2022/01/23 00:52:04;;;;;;;34.15;17.20;;;1.50;99.90;;;;;;5029483;28;20060;-68
2022/01/23 00:55:08;;;;;;;30.52;16.90;;;1.50;99.90;;;;;;5028483;28;20048;-68
2022/01/23 00:58:14;;;;;;;32.88;18.20;;;1.50;99.90;;;;;;5029109;28;20044;-68
2022/01/23 01:01:20;;;;;;;34.08;18.60;;;1.50;99.90;;;;;;5029209;28;20491;-68
2022/01/23 01:04:24;;;;;;;33.15;17.90;;;1.50;99.90;;;;;;5029365;28;20048;-68
2022/01/23 01:07:28;;;;;;;32.30;18.00;;;1.50;99.90;;;;;;5029988;28;20400;-68
2022/01/23 01:10:46;;;;;;;32.90;17.27;;;1.40;99.90;;;;;;5032129;28;20060;-68
2022/01/23 01:30:55;;;;;;;;;;;1.40;99.90;;;;;;5033270;28;20048;-67
2022/01/23 01:37:09;;;;;;;30.23;15.35;;;1.50;99.90;;;;;;5031412;28;20064;-68
2022/01/23 01:40:14;;;;;;;32.33;14.73;;;1.40;99.90;;;;;;5030952;28;20048;-67
2022/01/23 01:43:19;;;;;;;28.42;13.93;;;1.40;99.90;;;;;;5031761;28;20048;-68
2022/01/23 01:46:23;;;;;;;27.55;14.70;;;1.40;99.90;;;;;;5032263;28;20056;-67
2022/01/23 01:49:34;;;;;;;32.65;15.15;;;1.30;99.90;;;;;;5030759;28;20404;-68
2022/01/23 01:52:43;;;;;;;26.98;15.57;;;1.30;99.90;;;;;;5042834;28;20056;-68
2022/01/23 01:55:53;;;;;;;32.60;16.88;;;1.30;99.90;;;;;;5031085;28;20155;-68
2022/01/23 01:59:14;;;;;;;35.75;16.58;;;1.10;99.90;;;;;;5030800;28;20048;-68
2022/01/23 02:09:20;;;;;;;30.65;15.70;;;0.70;99.90;;;;;;5030579;28;20052;-68
2022/01/23 02:16:40;;;;;;;;;;;0.50;99.90;;;;;;5031073;28;20049;-67
2022/01/23 02:57:07;;;;;;;33.88;17.63;;;-0.10;99.90;;;;;;5029924;28;20048;-67
2022/01/23 03:00:15;;;;;;;33.75;17.52;;;-0.10;99.90;;;;;;5030291;28;20052;-67
2022/01/23 03:03:43;;;;;;;34.60;18.05;;;0.00;99.90;;;;;;5030965;28;20060;-67
2022/01/23 03:10:19;;;;;;;34.20;17.80;;;0.10;99.90;;;;;;5029434;28;20049;-67
2022/01/23 03:14:16;;;;;;;32.13;17.55;;;0.20;99.90;;;;;;5030447;28;20103;-67
2022/01/23 03:30:28;;;;;;;32.60;17.10;;;0.30;99.90;;;;;;5028761;28;20040;-67
2022/01/23 03:33:33;;;;;;;30.70;16.67;;;0.40;99.90;;;;;;5030094;28;20040;-68
2022/01/23 03:36:38;;;;;;;34.03;17.10;;;0.40;99.90;;;;;;5029999;28;20048;-67
2022/01/23 03:39:42;;;;;;;31.70;18.80;;;0.40;99.90;;;;;;5029747;28;20036;-67
2022/01/23 03:42:48;;;;;;;33.65;17.25;;;0.40;99.90;;;;;;5029110;28;20247;-67
2022/01/23 03:49:32;;;;;;;28.15;15.95;;;0.30;99.90;;;;;;5026163;28;20491;-67
2022/01/23 03:52:41;;;;;;;36.78;16.90;;;0.20;99.90;;;;;;5029126;28;20048;-67
2022/01/23 03:55:46;;;;;;;32.40;16.67;;;0.20;99.90;;;;;;5028844;28;20388;-67
2022/01/23 03:58:50;;;;;;;33.05;15.27;;;0.20;99.90;;;;;;5029013;28;20069;-67
2022/01/23 04:01:57;;;;;;;28.38;15.63;;;0.20;99.90;;;;;;5029084;28;20507;-67
2022/01/23 04:05:02;;;;;;;26.00;13.80;;;0.20;99.90;;;;;;5029124;28;20044;-67
2022/01/23 04:08:07;;;;;;;28.65;16.25;;;0.20;99.90;;;;;;5028618;28;20048;-68
2022/01/23 04:11:11;;;;;;;27.35;15.30;;;0.20;99.90;;;;;;5030226;28;20045;-68
2022/01/23 04:14:17;;;;;;;26.20;14.02;;;0.30;99.90;;;;;;5029158;28;20041;-67
2022/01/23 05:01:41;;;;;;;;;;;-0.40;99.90;;;;;;5033677;28;20057;-67
2022/01/23 05:04:54;;;;;;;28.95;14.80;;;-0.50;99.90;;;;;;5032492;28;20462;-67
2022/01/23 05:08:32;;;;;;;30.85;16.67;;;-0.40;99.90;;;;;;5025826;28;20499;-67
2022/01/23 05:12:00;;;;;;;32.33;17.67;;;-0.40;99.90;;;;;;5032613;28;20044;-67
2022/01/23 05:15:07;;;;;;;33.13;16.75;;;-0.40;99.90;;;;;;5043691;28;20048;-67
2022/01/23 05:18:12;;;;;;;33.85;17.33;;;-0.30;99.90;;;;;;5031756;28;20056;-67
2022/01/23 05:24:33;;;;;;;33.17;16.52;;;-0.30;99.90;;;;;;5031913;28;20040;-67
2022/01/23 05:27:37;;;;;;;32.15;15.38;;;-0.20;99.90;;;;;;5032091;28;20052;-67
2022/01/23 05:30:41;;;;;;;32.90;17.63;;;-0.30;99.90;;;;;;5029728;28;20056;-67
2022/01/23 05:33:46;;;;;;;33.08;16.05;;;-0.30;99.90;;;;;;5032725;28;20048;-67
2022/01/23 05:36:52;;;;;;;27.95;14.60;;;-0.30;99.90;;;;;;5031818;28;20047;-67
2022/01/23 05:39:56;;;;;;;29.88;16.77;;;-0.30;99.90;;;;;;5031849;28;20041;-67
2022/01/23 05:43:01;;;;;;;31.45;14.88;;;-0.40;99.90;;;;;;5042080;28;20388;-67
2022/01/23 05:46:05;;;;;;;25.73;13.88;;;-0.40;99.90;;;;;;5031538;28;20045;-67
2022/01/23 05:49:09;;;;;;;24.80;13.15;;;-0.50;99.90;;;;;;5031891;28;20075;-67
2022/01/23 05:52:34;;;;;;;22.95;12.15;;;-0.50;99.90;;;;;;5032249;28;20048;-67
2022/01/23 05:55:44;;;;;;;25.50;11.43;;;-0.60;99.90;;;;;;5030853;28;20048;-67
2022/01/23 05:59:26;;;;;;;22.58;11.80;;;-0.60;99.90;;;;;;5032119;28;20048;-67
2022/01/23 06:02:31;;;;;;;21.17;10.68;;;-0.60;99.90;;;;;;5031187;28;20041;-67
2022/01/23 06:05:35;;;;;;;23.88;11.57;;;-0.50;99.90;;;;;;5043689;28;20052;-67
2022/01/23 06:08:43;;;;;;;22.75;11.30;;;-0.60;99.90;;;;;;5031359;28;20052;-66
2022/01/23 06:11:48;;;;;;;24.75;12.98;;;-0.60;99.90;;;;;;5043107;28;20044;-67
2022/01/23 06:14:52;;;;;;;27.10;13.05;;;-0.60;99.90;;;;;;5032884;28;20048;-67
2022/01/23 06:17:56;;;;;;;26.35;14.13;;;-0.60;99.90;;;;;;5031356;28;20048;-67
2022/01/23 06:21:20;;;;;;;30.58;14.48;;;-0.60;99.90;;;;;;5032058;28;20483;-68
2022/01/23 06:24:31;;;;;;;25.83;13.20;;;-0.70;99.90;;;;;;5031942;28;20068;-66
2022/01/23 06:27:55;;;;;;;30.20;14.90;;;-0.60;99.90;;;;;;5031592;28;20527;-67
2022/01/23 06:31:00;;;;;;;27.08;14.20;;;-0.60;99.90;;;;;;5030651;28;20059;-67
2022/01/23 06:34:09;;;;;;;25.85;14.88;;;-0.60;99.90;;;;;;5030718;28;20049;-67
2022/01/23 06:37:13;;;;;;;32.03;15.18;;;-0.60;99.90;;;;;;5031365;28;20048;-67
2022/01/23 06:40:18;;;;;;;26.92;14.57;;;-0.70;99.90;;;;;;5031284;28;20093;-67
2022/01/23 06:43:54;;;;;;;27.48;14.57;;;-0.70;99.90;;;;;;5029961;28;20045;-67
2022/01/23 06:47:02;;;;;;;26.45;13.93;;;-0.80;99.90;;;;;;5030207;28;20074;-67
2022/01/23 06:50:07;;;;;;;28.27;14.77;;;-0.90;99.90;;;;;;5030697;28;20052;-67
2022/01/23 06:53:12;;;;;;;31.48;16.88;;;-1.00;99.90;;;;;;5041690;28;20049;-67
2022/01/23 06:56:16;;;;;;;32.78;17.98;;;-1.10;99.90;;;;;;5030955;28;20491;-67
2022/01/23 06:59:21;;;;;;;32.60;18.27;;;-1.00;99.90;;;;;;5029836;28;20052;-67
2022/01/23 07:02:32;;;;;;;40.83;18.90;;;-0.90;99.90;;;;;;5041755;28;20510;-66
2022/01/23 07:05:56;;;;;;;36.08;18.05;;;-0.80;99.90;;;;;;5029073;28;20033;-66
2022/01/23 07:09:23;;;;;;;34.83;17.23;;;-0.60;99.90;;;;;;5029272;28;20104;-67
2022/01/23 07:12:46;;;;;;;31.35;16.65;;;-0.50;99.90;;;;;;5030820;28;20412;-66
2022/01/23 07:16:27;;;;;;;29.83;15.65;;;1.00;99.90;;;;;;5030807;28;20052;-67
2022/01/23 07:19:52;;;;;;;30.55;14.52;;;4.00;99.90;;;;;;5030636;28;20044;-67
2022/01/23 07:23:05;;;;;;;27.30;14.85;;;6.80;99.90;;;;;;5029886;28;20058;-67
2022/01/23 07:26:10;;;;;;;19.30;12.10;;;9.00;99.90;;;;;;5041324;28;20076;-67
2022/01/23 07:29:17;;;;;;;22.75;13.77;;;8.30;99.90;;;;;;5029231;28;20049;-68
2022/01/23 07:32:21;;;;;;;29.50;16.63;;;7.00;99.90;;;;;;5040093;28;20048;-67
2022/01/23 07:35:26;;;;;;;27.55;16.73;;;6.30;99.90;;;;;;5029724;28;20052;-67
2022/01/23 07:38:30;;;;;;;26.00;16.17;;;7.30;99.90;;;;;;5029557;28;20515;-67
2022/01/23 07:41:54;;;;;;;27.20;15.77;;;9.80;99.90;;;;;;5030752;28;20384;-68
2022/01/23 07:45:22;;;;;;;22.45;15.05;;;12.10;99.80;;;;;;5030323;28;20048;-68
2022/01/23 07:48:45;;;;;;;24.83;17.23;;;13.50;96.90;;;;;;5029904;28;20037;-68
2022/01/23 07:52:10;;;;;;;31.08;16.30;;;14.70;93.60;;;;;;5033389;28;20048;-69
2022/01/23 07:55:32;;;;;;;22.10;15.95;;;15.50;91.80;;;;;;5029529;28;20045;-68
2022/01/23 07:58:55;;;;;;;23.80;15.80;;;15.90;90.20;;;;;;5029842;28;20060;-68
2022/01/23 08:02:18;;;;;;;25.70;17.42;;;17.30;85.10;;;;;;5030705;28;20040;-68
2022/01/23 08:05:45;;;;;;;25.63;16.83;;;16.50;82.80;;;;;;5019099;28;20525;-68
2022/01/23 08:09:01;;;;;;;24.05;16.27;;;16.20;83.20;;;;;;5031671;28;20376;-68
2022/01/23 08:12:12;;;;;;;22.48;15.43;;;17.50;80.10;;;;;;5029599;28;20380;-68
2022/01/23 08:15:20;;;;;;;22.73;17.23;;;18.10;78.20;;;;;;5030024;28;20033;-69
2022/01/23 08:18:24;;;;;;;25.13;16.67;;;18.30;75.90;;;;;;5033326;28;20044;-68
2022/01/23 08:21:30;;;;;;;26.27;17.13;;;17.30;76.40;;;;;;5034340;28;20052;-68
2022/01/23 08:24:34;;;;;;;29.00;17.90;;;15.80;78.20;;;;;;5033688;28;20056;-69
2022/01/23 08:27:41;;;;;;;21.85;16.38;;;15.90;78.00;;;;;;5034943;28;20052;-68
2022/01/23 08:30:45;;;;;;;24.30;17.33;;;10.50;85.00;;;;;;5034733;28;20068;-69
2022/01/23 08:33:49;;;;;;;25.27;16.55;;;8.10;92.20;;;;;;5033939;28;20515;-68
2022/01/23 08:36:56;;;;;;;27.77;17.38;;;7.60;94.50;;;;;;5033934;28;20044;-68
2022/01/23 08:40:01;;;;;;;24.25;16.52;;;7.40;95.90;;;;;;5034074;28;20037;-68
2022/01/23 08:43:06;;;;;;;30.30;19.48;;;8.40;96.40;;;;;;5033814;28;20400;-68
2022/01/23 08:46:10;;;;;;;27.08;17.83;;;9.70;94.60;;;;;;5033824;28;20510;-67
2022/01/23 08:49:17;;;;;;;25.85;17.30;;;12.40;91.20;;;;;;5032198;28;20052;-69
2022/01/23 08:52:21;;;;;;;27.00;18.15;;;14.40;87.60;;;;;;5034383;28;20049;-68
2022/01/23 08:55:26;;;;;;;26.00;18.38;;;15.60;83.50;;;;;;5034550;28;20048;-68
2022/01/23 08:58:30;;;;;;;25.38;16.55;;;15.50;81.60;;;;;;5033514;28;20049;-69
2022/01/23 09:01:34;;;;;;;26.60;17.65;;;15.20;81.60;;;;;;5033318;28;20033;-68
2022/01/23 09:04:39;;;;;;;26.50;18.20;;;14.00;82.50;;;;;;5033247;28;20049;-68
2022/01/23 09:07:44;;;;;;;25.38;17.95;;;13.60;84.50;;;;;;5033477;28;20040;-68
2022/01/23 09:10:54;;;;;;;30.77;20.10;;;12.60;86.00;;;;;;5032791;28;20065;-68
2022/01/23 09:14:10;;;;;;;27.58;19.67;;;12.20;87.80;;;;;;5033241;28;20045;-68
2022/01/23 09:17:14;;;;;;;31.92;20.13;;;11.30;89.30;;;;;;5033519;28;20049;-69
2022/01/23 09:20:17;;;;;;;31.20;20.45;;;9.10;92.20;;;;;;5032782;28;20062;-69
2022/01/23 09:23:22;;;;;;;29.63;20.00;;;8.10;95.10;;;;;;5032867;28;20040;-68
2022/01/23 09:26:27;;;;;;;30.13;20.17;;;10.00;94.20;;;;;;5033368;28;20048;-68
2022/01/23 09:29:39;;;;;;;28.02;19.50;;;11.10;92.40;;;;;;5031831;28;20036;-68
2022/01/23 09:32:44;;;;;;;28.70;20.00;;;11.00;91.70;;;;;;5032889;28;20590;-68
2022/01/23 09:35:48;;;;;;;27.15;18.23;;;10.70;93.10;;;;;;5032457;28;20056;-69
2022/01/23 09:38:52;;;;;;;31.98;19.85;;;12.60;90.40;;;;;;5032433;28;20507;-68
2022/01/23 09:42:06;;;;;;;29.73;18.60;;;14.20;87.90;;;;;;5033196;28;20040;-68
2022/01/23 09:45:13;;;;;;;30.10;19.92;;;15.40;83.80;;;;;;5032838;28;20045;-69
2022/01/23 09:48:18;;;;;;;28.73;20.55;;;15.80;82.70;;;;;;5032431;28;20060;-69
2022/01/23 09:51:25;;;;;;;29.27;20.05;;;15.10;81.60;;;;;;5044005;28;20507;-69
2022/01/23 09:54:31;;;;;;;22.17;16.00;;;15.50;82.60;;;;;;5033377;28;20044;-68
2022/01/23 09:57:39;;;;;;;24.25;16.42;;;17.30;78.50;;;;;;5033001;28;20076;-68
2022/01/23 10:00:43;;;;;;;29.17;18.63;;;18.70;76.10;;;;;;5033148;28;20056;-69
2022/01/23 10:03:47;;;;;;;26.00;17.35;;;18.90;74.60;;;;;;5032793;28;20064;-69
2022/01/23 10:06:52;;;;;;;24.73;15.68;;;20.40;73.00;;;;;;5031529;28;20406;-69
2022/01/23 10:10:09;;;;;;;23.58;15.82;;;20.50;69.40;;;;;;5043361;28;20048;-69
2022/01/23 10:13:15;;;;;;;18.55;12.52;;;19.20;72.90;;;;;;5050479;28;20051;-68
2022/01/23 10:16:19;;;;;;;17.33;11.98;;;21.40;67.70;;;;;;5049861;28;20502;-67
2022/01/23 10:19:23;;;;;;;17.60;10.98;;;19.30;68.80;;;;;;5048391;28;20044;-69
2022/01/23 10:22:29;;;;;;;18.95;11.82;;;15.90;73.10;;;;;;5049125;28;20044;-69
2022/01/23 10:25:43;;;;;;;19.48;12.75;;;16.30;72.40;;;;;;5047295;28;20036;-69
2022/01/23 10:28:48;;;;;;;24.27;16.05;;;17.80;70.70;;;;;;5050447;28;20398;-69
2022/01/23 10:32:03;;;;;;;24.27;16.77;;;17.10;73.40;;;;;;5047052;28;20048;-68
2022/01/23 10:35:08;;;;;;;27.52;17.38;;;16.30;73.90;;;;;;5050865;28;20514;-69
2022/01/23 10:38:14;;;;;;;29.38;17.17;;;15.60;77.20;;;;;;5043593;28;20048;-69
2022/01/23 10:41:32;;;;;;;26.08;18.50;;;15.80;76.30;;;;;;5050363;28;20044;-69
2022/01/23 10:48:13;;;;;;;24.42;16.85;;;13.90;81.40;;;;;;5050782;28;20044;-69
2022/01/23 10:51:26;;;;;;;29.80;17.52;;;15.80;79.70;;;;;;5051353;28;20056;-68
2022/01/23 10:54:34;;;;;;;23.97;15.97;;;17.60;74.90;;;;;;5051317;28;20076;-67
2022/01/23 10:57:40;;;;;;;22.73;16.02;;;18.70;73.50;;;;;;5049625;28;20052;-67
2022/01/23 11:00:44;;;;;;;20.20;15.35;;;18.50;72.70;;;;;;5050401;28;20048;-67
2022/01/23 11:04:11;;;;;;;19.88;15.30;;;19.30;72.10;;;;;;5051159;28;20048;-67
2022/01/23 11:07:20;;;;;;;19.80;13.95;;;19.80;71.20;;;;;;5051600;28;20048;-67
2022/01/23 11:10:25;;;;;;;16.85;12.93;;;21.50;69.40;;;;;;5050841;28;20040;-67
2022/01/23 11:20:40;;;;;;;14.82;10.95;;;23.50;64.00;;;;;;5050259;28;20044;-67
2022/01/23 11:23:54;;;;;;;16.50;13.18;;;24.40;62.70;;;;;;5050399;28;20055;-68
2022/01/23 11:27:03;;;;;;;15.60;11.52;;;23.50;61.70;;;;;;5050616;28;20499;-68
2022/01/23 11:30:09;;;;;;;15.52;11.90;;;24.20;58.90;;;;;;5050849;28;20399;-68
2022/01/23 11:33:17;;;;;;;14.75;11.45;;;26.50;58.00;;;;;;5050211;28;20048;-67
2022/01/23 11:36:22;;;;;;;17.23;11.45;;;27.00;56.70;;;;;;5049790;28;20419;-67
2022/01/23 11:39:45;;;;;;;14.63;10.18;;;22.50;57.30;;;;;;5049576;28;20055;-67
2022/01/23 11:56:46;;;;;;;14.93;10.27;;;22.40;59.00;;;;;;5050360;28;20407;-67
2022/01/23 12:00:19;;;;;;;15.25;10.43;;;24.10;58.00;;;;;;5050164;28;20056;-68
2022/01/23 12:03:24;;;;;;;16.77;12.77;;;25.10;57.20;;;;;;5050596;28;20048;-67
2022/01/23 12:06:28;;;;;;;16.38;11.48;;;22.80;58.10;;;;;;5050395;28;20052;-67
2022/01/23 12:09:33;;;;;;;13.93;10.75;;;23.50;58.40;;;;;;5049625;28;20491;-67
2022/01/23 12:12:41;;;;;;;14.32;11.00;;;24.40;58.40;;;;;;5050322;28;20053;-67
2022/01/23 12:19:22;;;;;;;14.77;10.52;;;22.00;60.50;;;;;;5048771;28;20040;-67
2022/01/23 12:22:37;;;;;;;13.82;9.30;;;23.20;59.10;;;;;;5049546;28;20391;-67
2022/01/23 12:25:43;;;;;;;14.15;10.52;;;22.30;59.30;;;;;;5050125;28;20040;-67
2022/01/23 12:28:46;;;;;;;14.98;11.02;;;23.40;58.40;;;;;;5049252;28;20506;-70
2022/01/23 12:32:29;;;;;;;17.70;11.82;;;21.90;60.70;;;;;;5050030;28;20052;-67
2022/01/23 12:35:41;;;;;;;17.88;12.35;;;21.50;60.00;;;;;;5049174;28;20056;-67
2022/01/23 12:38:53;;;;;;;15.57;10.98;;;19.70;62.70;;;;;;5049729;28;20060;-67
2022/01/23 12:42:02;;;;;;;13.43;10.27;;;21.50;60.70;;;;;;5050055;28;20040;-67
2022/01/23 12:46:01;;;;;;;15.90;11.02;;;23.80;60.30;;;;;;5049474;28;20039;-68
2022/01/23 12:49:19;;;;;;;16.98;11.10;;;25.80;58.00;;;;;;5027645;28;20267;-67
2022/01/23 12:52:23;;;;;;;16.15;11.40;;;27.00;56.20;;;;;;5049807;28;20052;-68
2022/01/23 12:55:27;;;;;;;15.73;11.43;;;27.40;55.80;;;;;;5049703;28;20068;-68
2022/01/23 12:58:34;;;;;;;15.27;11.18;;;27.60;55.60;;;;;;5049081;28;20051;-67
2022/01/23 13:01:44;;;;;;;16.23;10.55;;;27.20;55.60;;;;;;5048417;28;20499;-67
2022/01/23 13:04:51;;;;;;;17.23;11.50;;;28.40;55.10;;;;;;5052247;28;20060;-68
2022/01/23 13:14:08;;;;;;;12.20;10.07;;;23.20;58.50;;;;;;5040434;28;20391;-66
2022/01/23 13:27:47;;;;;;;20.15;11.25;;;14.20;73.80;;;;;;5052474;28;20481;-69
2022/01/23 13:30:48;;;;;;;16.27;9.98;;;13.40;76.40;;;;;;5052619;28;20048;-69
2022/01/23 13:33:52;;;;;;;20.05;10.60;;;13.70;76.40;;;;;;5052251;28;20055;-69
2022/01/23 13:37:02;;;;;;;15.43;9.68;;;13.70;76.40;;;;;;5052355;28;20150;-69
2022/01/23 13:40:23;;;;;;;17.13;10.10;;;13.80;76.30;;;;;;5051838;28;20040;-67
2022/01/23 13:51:23;;;;;;;29.77;20.00;;;13.20;78.70;;;;;;5052123;28;20055;-67
2022/01/23 13:57:40;;;;;;;21.50;12.63;;;12.50;81.50;;;;;;5052109;28;20048;-67
2022/01/23 14:00:44;;;;;;;31.08;17.15;;;12.30;83.20;;;;;;5052048;28;20044;-67
2022/01/23 14:03:49;;;;;;;33.53;20.13;;;12.20;83.40;;;;;;5051632;28;20048;-66
2022/01/23 14:06:54;;;;;;;23.52;15.27;;;12.00;84.40;;;;;;5051312;28;20044;-69
2022/01/23 14:10:12;;;;;;;32.95;18.25;;;11.70;84.80;;;;;;5051407;28;20060;-68
2022/01/23 14:13:19;;;;;;;23.88;14.13;;;11.50;86.90;;;;;;5052056;28;20039;-69
2022/01/23 14:16:27;;;;;;;24.20;12.88;;;11.30;87.10;;;;;;5052088;28;20044;-69
2022/01/23 14:19:31;;;;;;;20.40;11.73;;;11.10;88.90;;;;;;5051414;28;20068;-66
2022/01/23 14:22:38;;;;;;;26.17;12.77;;;11.00;88.70;;;;;;5051909;28;20392;-67
2022/01/23 14:25:52;;;;;;;22.60;12.43;;;10.80;89.50;;;;;;5051272;28;20045;-67
2022/01/23 14:29:02;;;;;;;26.15;13.65;;;10.70;89.60;;;;;;5050769;28;20048;-67
2022/01/23 14:32:17;;;;;;;23.80;13.65;;;10.50;90.60;;;;;;5050732;28;20040;-67
2022/01/23 14:35:26;;;;;;;26.95;12.05;;;10.50;90.80;;;;;;5050093;28;20064;-66
2022/01/23 14:38:31;;;;;;;23.35;11.40;;;10.40;91.60;;;;;;5050884;28;20044;-67
2022/01/23 14:41:40;;;;;;;19.90;11.20;;;11.30;91.10;;;;;;5051692;28;20051;-67
2022/01/23 14:44:45;;;;;;;16.92;10.57;;;13.70;87.30;;;;;;5051841;28;20492;-67
2022/01/23 14:47:50;;;;;;;18.23;11.07;;;15.90;80.00;;;;;;5051655;28;20066;-67
2022/01/23 14:50:56;;;;;;;17.67;11.27;;;17.50;75.60;;;;;;5050972;28;20052;-67
2022/01/23 14:54:01;;;;;;;23.25;11.40;;;18.50;72.60;;;;;;5051286;28;20490;-67
2022/01/23 14:57:09;;;;;;;15.30;10.68;;;19.10;71.60;;;;;;5051590;28;20380;-68
2022/01/23 15:00:15;;;;;;;17.33;11.35;;;19.50;71.10;;;;;;5050763;28;20167;-67
2022/01/23 15:03:21;;;;;;;17.73;11.63;;;18.60;70.70;;;;;;5050788;28;20068;-67
2022/01/23 15:06:26;;;;;;;19.42;12.63;;;17.00;73.60;;;;;;5050883;28;20401;-67
2022/01/23 15:09:30;;;;;;;32.00;17.52;;;16.60;75.50;;;;;;5051122;28;20403;-68
2022/01/23 15:12:36;;;;;;;33.22;20.45;;;17.20;75.00;;;;;;5051539;28;20380;-67
2022/01/23 15:15:42;;;;;;;19.00;14.30;;;18.10;74.10;;;;;;5049806;28;20056;-68
2022/01/23 15:18:46;;;;;;;17.95;13.73;;;18.80;72.80;;;;;;5050280;28;20048;-67
2022/01/23 15:21:50;;;;;;;34.65;23.73;;;19.40;72.40;;;;;;5050723;28;20059;-67
2022/01/23 15:24:54;;;;;;;40.75;28.35;;;19.60;71.80;;;;;;5049587;28;20052;-68
2022/01/23 15:27:59;;;;;;;31.42;20.60;;;19.60;71.90;;;;;;5050706;28;20048;-67
2022/01/23 15:31:04;;;;;;;22.67;14.45;;;19.50;72.30;;;;;;5050424;28;20218;-67
2022/01/23 15:34:07;;;;;;;35.60;20.70;;;19.00;72.50;;;;;;5050375;28;20047;-67
2022/01/23 15:37:13;;;;;;;19.92;14.30;;;17.70;74.20;;;;;;5049628;28;20146;-67
2022/01/23 15:40:19;;;;;;;34.50;21.27;;;16.70;77.10;;;;;;5050745;28;20036;-67
2022/01/23 15:43:23;;;;;;;23.52;16.45;;;16.40;78.40;;;;;;5050713;28;20052;-67
2022/01/23 15:46:28;;;;;;;23.20;14.80;;;16.40;79.30;;;;;;5049853;28;20072;-67
2022/01/23 15:49:32;;;;;;;19.50;11.85;;;16.20;80.50;;;;;;5049707;28;20055;-67
2022/01/23 15:52:37;;;;;;;16.58;9.68;;;15.90;82.00;;;;;;5049720;28;20052;-67
2022/01/23 15:55:41;;;;;;;16.23;9.05;;;15.40;83.40;;;;;;5050234;28;20039;-67
2022/01/23 15:58:46;;;;;;;13.20;8.20;;;14.90;85.00;;;;;;5049947;28;20083;-69
2022/01/23 16:01:51;;;;;;;15.68;8.75;;;14.20;87.40;;;;;;5050316;28;20056;-67
2022/01/23 16:04:55;;;;;;;13.35;9.48;;;13.30;90.10;;;;;;5050090;28;20048;-69
2022/01/23 16:07:59;;;;;;;15.52;8.27;;;12.50;91.60;;;;;;5050466;28;20047;-66
2022/01/23 16:11:06;;;;;;;15.52;10.02;;;11.70;93.00;;;;;;5050062;28;20043;-67
2022/01/23 16:14:10;;;;;;;19.38;11.38;;;11.10;94.90;;;;;;5050086;28;20052;-67
2022/01/23 16:17:14;;;;;;;21.20;12.70;;;10.60;96.70;;;;;;5049554;28;20063;-67
2022/01/23 16:20:19;;;;;;;18.27;11.30;;;10.20;98.80;;;;;;5049782;28;20067;-67
2022/01/23 16:23:23;;;;;;;42.53;24.45;;;9.90;99.90;;;;;;5049997;28;20395;-67
2022/01/23 16:26:27;;;;;;;31.63;17.05;;;9.50;99.90;;;;;;5049475;28;20039;-67
2022/01/23 16:29:32;;;;;;;38.85;20.00;;;9.20;99.90;;;;;;5049983;28;20395;-69
2022/01/23 16:32:37;;;;;;;41.03;27.45;;;9.00;99.90;;;;;;5050249;28;20553;-67
2022/01/23 16:35:41;;;;;;;40.35;20.92;;;8.80;99.90;;;;;;5048340;28;20052;-67
2022/01/23 16:38:46;;;;;;;34.47;18.67;;;8.60;99.90;;;;;;5053408;28;20051;-68
2022/01/23 16:41:52;;;;;;;35.97;20.20;;;8.50;99.90;;;;;;5052497;28;20063;-68
2022/01/23 16:44:56;;;;;;;32.10;19.17;;;8.30;99.90;;;;;;5054346;28;20052;-67
2022/01/23 16:48:02;;;;;;;23.02;14.73;;;8.20;99.90;;;;;;5052914;28;20056;-67
2022/01/23 16:51:06;;;;;;;26.95;14.48;;;8.10;99.90;;;;;;5053898;28;20048;-67
2022/01/23 16:54:14;;;;;;;24.23;14.63;;;8.00;99.90;;;;;;5053569;28;20052;-67
2022/01/23 16:57:19;;;;;;;30.48;17.33;;;7.90;99.90;;;;;;5052803;28;20415;-67
2022/01/23 17:00:23;;;;;;;30.65;17.52;;;7.90;99.90;;;;;;5054288;28;20052;-67
2022/01/23 17:03:28;;;;;;;26.92;15.18;;;7.80;99.90;;;;;;5054428;28;20040;-67
2022/01/23 17:06:38;;;;;;;27.40;14.63;;;7.70;99.90;;;;;;5053998;28;20040;-67
2022/01/23 17:09:42;;;;;;;24.85;15.68;;;7.70;99.90;;;;;;5054582;28;20072;-67
2022/01/23 17:12:46;;;;;;;24.33;15.35;;;7.60;99.90;;;;;;5054879;28;20036;-67
2022/01/23 17:15:50;;;;;;;21.02;12.95;;;7.60;99.90;;;;;;5054625;28;20052;-67
2022/01/23 17:18:55;;;;;;;25.48;13.90;;;7.50;99.90;;;;;;5054454;28;20052;-67
2022/01/23 17:22:01;;;;;;;30.77;17.38;;;7.40;99.90;;;;;;5052855;28;20048;-67
2022/01/23 17:25:05;;;;;;;24.65;15.20;;;7.30;99.90;;;;;;5052741;28;20048;-67
2022/01/23 17:28:12;;;;;;;29.30;17.90;;;7.30;99.90;;;;;;5051814;28;20036;-67
2022/01/23 17:31:16;;;;;;;29.48;17.60;;;7.10;99.90;;;;;;5063250;28;20040;-67
2022/01/23 17:34:20;;;;;;;48.00;30.13;;;7.10;99.90;;;;;;5052419;28;20044;-67
2022/01/23 17:37:26;;;;;;;35.70;22.95;;;7.00;99.90;;;;;;5052619;28;20325;-67
2022/01/23 17:40:31;;;;;;;30.00;16.13;;;7.00;99.90;;;;;;5053280;28;20048;-67
2022/01/23 17:43:35;;;;;;;17.17;11.23;;;6.90;99.90;;;;;;5052280;28;20528;-67
2022/01/23 17:46:41;;;;;;;20.40;11.40;;;6.80;99.90;;;;;;5053188;28;20112;-67
2022/01/23 17:49:54;;;;;;;16.17;9.75;;;6.80;99.90;;;;;;5050777;28;20052;-67
2022/01/23 17:52:59;;;;;;;11.95;8.35;;;6.80;99.90;;;;;;5052648;28;20036;-67
2022/01/23 17:56:03;;;;;;;13.82;7.95;;;6.70;99.90;;;;;;5052287;28;20386;-67
2022/01/23 17:59:07;;;;;;;17.33;10.05;;;6.70;99.90;;;;;;5051106;28;20052;-67
2022/01/23 18:02:14;;;;;;;19.17;12.50;;;6.70;99.90;;;;;;5051953;28;20375;-67
2022/01/23 18:05:18;;;;;;;20.23;11.50;;;6.70;99.90;;;;;;5051802;28;20059;-67
2022/01/23 18:08:24;;;;;;;19.92;10.65;;;6.70;99.90;;;;;;5051628;28;20064;-67
2022/01/23 18:11:28;;;;;;;15.20;8.93;;;6.60;99.90;;;;;;5051457;28;20048;-67
2022/01/23 18:14:34;;;;;;;18.20;11.07;;;6.60;99.90;;;;;;5052784;28;20048;-68
2022/01/23 18:17:38;;;;;;;64.38;33.63;;;6.50;99.90;;;;;;5052540;28;20379;-67
2022/01/23 18:20:43;;;;;;;31.75;20.13;;;6.50;99.90;;;;;;5053536;28;20522;-67
2022/01/23 18:23:47;;;;;;;18.08;13.07;;;6.50;99.90;;;;;;5051735;28;20048;-67
2022/01/23 18:26:51;;;;;;;23.27;16.98;;;6.50;99.90;;;;;;5053053;28;20048;-68
2022/01/23 18:29:57;;;;;;;16.65;11.18;;;6.40;99.90;;;;;;5051820;28;20052;-67
2022/01/23 18:33:01;;;;;;;20.10;11.10;;;6.40;99.90;;;;;;5052510;28;20499;-67
2022/01/23 18:36:05;;;;;;;16.33;10.63;;;6.40;99.90;;;;;;5053184;28;20044;-67
2022/01/23 18:39:10;;;;;;;16.08;10.43;;;6.30;99.90;;;;;;5051321;28;20040;-67
2022/01/23 18:42:14;;;;;;;16.42;11.02;;;6.30;99.90;;;;;;5053926;28;20044;-67
2022/01/23 18:45:18;;;;;;;16.38;9.32;;;6.30;99.90;;;;;;5053338;28;20043;-67
2022/01/23 18:48:23;;;;;;;19.50;11.27;;;6.20;99.90;;;;;;5053833;28;20502;-67
2022/01/23 18:51:28;;;;;;;24.15;12.70;;;6.10;99.90;;;;;;5053754;28;20128;-67
2022/01/23 18:58:04;;;;;;;29.38;17.77;;;6.10;99.90;;;;;;5050832;28;20431;-67
2022/01/23 19:01:10;;;;;;;31.98;17.42;;;6.00;99.90;;;;;;5053532;28;20048;-67
2022/01/23 19:04:15;;;;;;;37.65;17.08;;;6.00;99.90;;;;;;5052495;28;20044;-67
2022/01/23 19:07:25;;;;;;;30.45;16.50;;;6.00;99.90;;;;;;5052159;28;20048;-67
2022/01/23 19:10:39;;;;;;;31.90;18.17;;;5.90;99.90;;;;;;5052394;28;20051;-67
2022/01/23 19:13:42;;;;;;;47.13;25.27;;;5.80;99.90;;;;;;5050602;28;20048;-67
2022/01/23 19:16:48;;;;;;;46.63;27.00;;;5.70;99.90;;;;;;5052753;28;20043;-67
2022/01/23 19:19:52;;;;;;;65.20;36.88;;;5.60;99.90;;;;;;5052321;28;20047;-67
2022/01/23 19:22:58;;;;;;;61.35;33.40;;;5.60;99.90;;;;;;5051970;28;20108;-67
2022/01/23 19:26:02;;;;;;;44.08;23.48;;;5.60;99.90;;;;;;5053295;28;20040;-67
2022/01/23 19:29:07;;;;;;;41.50;20.60;;;5.50;99.90;;;;;;5052493;28;20044;-67
2022/01/23 19:32:12;;;;;;;37.78;20.45;;;5.50;99.90;;;;;;5053258;28;20052;-67
2022/01/23 19:35:17;;;;;;;36.70;21.02;;;5.40;99.90;;;;;;5052486;28;20502;-67